createdAt,value
2018-03-31T00:01:53.318Z,5.00
2018-03-31T00:04:21.657Z,5.47
2018-03-31T00:06:49.328Z,5.00
2018-03-31T00:09:16.350Z,4.30
2018-03-31T00:11:43.347Z,5.80
2018-03-31T00:14:10.386Z,5.07
2018-03-31T00:16:37.379Z,5.10
2018-03-31T00:19:04.409Z,5.00
2018-03-31T00:21:31.396Z,5.10
2018-03-31T00:23:58.423Z,4.90
2018-03-31T00:26:25.419Z,5.20
2018-03-31T00:28:52.438Z,5.40
2018-03-31T00:31:19.424Z,5.20
2018-03-31T00:33:46.540Z,6.13
2018-03-31T00:36:13.536Z,6.03
2018-03-31T00:38:40.555Z,6.50
2018-03-31T00:41:08.359Z,5.90
2018-03-31T00:43:36.125Z,6.10
2018-03-31T00:46:03.156Z,5.03
2018-03-31T00:48:30.946Z,5.80
2018-03-31T00:51:46.887Z,6.43
2018-03-31T00:54:13.883Z,6.00
2018-03-31T00:56:40.902Z,7.40
2018-03-31T00:59:07.900Z,7.47
2018-03-31T01:01:34.927Z,8.13
2018-03-31T01:04:01.920Z,10.10
2018-03-31T01:06:28.951Z,10.07
2018-03-31T01:08:55.943Z,10.30
2018-03-31T01:11:23.233Z,11.70
2018-03-31T01:13:51.932Z,11.17
2018-03-31T01:16:20.322Z,9.53
2018-03-31T01:18:51.133Z,9.43
2018-03-31T01:21:22.763Z,10.57
2018-03-31T01:23:53.264Z,11.43
2018-03-31T01:26:20.612Z,12.37
2018-03-31T01:28:47.624Z,14.10
2018-03-31T01:31:15.407Z,15.20
2018-03-31T01:33:43.195Z,16.60
2018-03-31T01:36:10.222Z,17.87
2018-03-31T01:38:37.231Z,18.97
2018-03-31T01:41:04.261Z,15.57
2018-03-31T01:43:32.269Z,16.90
2018-03-31T01:45:59.290Z,18.50
2018-03-31T01:48:27.056Z,18.00
2018-03-31T01:50:54.094Z,20.17
2018-03-31T01:53:21.092Z,22.43
2018-03-31T01:55:48.875Z,20.10
2018-03-31T01:58:16.672Z,21.43
2018-03-31T02:00:43.663Z,19.83
2018-03-31T02:03:10.692Z,19.83
2018-03-31T02:05:38.448Z,17.57
2018-03-31T02:08:05.480Z,19.57
2018-03-31T02:10:32.488Z,21.97
2018-03-31T02:12:59.506Z,22.07
2018-03-31T02:15:26.500Z,21.67
2018-03-31T02:17:54.307Z,22.30
2018-03-31T02:20:21.303Z,25.97
2018-03-31T02:22:49.119Z,26.30
2018-03-31T02:25:16.123Z,24.77
2018-03-31T02:27:43.143Z,24.87
2018-03-31T02:30:10.133Z,24.97
2018-03-31T02:32:37.124Z,28.00
2018-03-31T02:35:04.159Z,25.67
2018-03-31T02:37:31.197Z,24.13
2018-03-31T02:39:58.206Z,24.60
2018-03-31T02:42:25.243Z,26.50
2018-03-31T02:44:52.233Z,25.60
2018-03-31T02:47:19.276Z,26.03
2018-03-31T02:49:46.274Z,23.77
2018-03-31T02:52:13.272Z,23.80
2018-03-31T02:54:40.315Z,24.00
2018-03-31T02:57:07.303Z,25.30
2018-03-31T02:59:34.344Z,26.70
2018-03-31T03:02:01.346Z,25.30
2018-03-31T03:04:28.378Z,24.77
2018-03-31T03:06:55.389Z,23.53
2018-03-31T03:09:23.177Z,21.30
2018-03-31T03:11:50.166Z,23.47
2018-03-31T03:14:17.191Z,27.50
2018-03-31T03:16:44.187Z,27.07
2018-03-31T03:19:11.213Z,27.90
2018-03-31T03:21:38.232Z,29.57
2018-03-31T03:24:05.255Z,29.60
2018-03-31T03:26:32.244Z,29.97
2018-03-31T03:28:59.275Z,30.23
2018-03-31T03:31:26.276Z,30.50
2018-03-31T03:33:53.303Z,28.20
2018-03-31T03:36:20.287Z,25.83
2018-03-31T03:38:47.308Z,26.33
2018-03-31T03:41:14.303Z,28.07
2018-03-31T03:43:41.301Z,28.93
2018-03-31T03:46:09.101Z,28.73
2018-03-31T03:48:36.100Z,30.40
2018-03-31T03:51:03.127Z,30.60
2018-03-31T03:53:30.117Z,31.13
2018-03-31T03:55:57.143Z,30.17
2018-03-31T03:58:24.144Z,30.20
2018-03-31T04:00:51.175Z,31.80
2018-03-31T04:03:18.167Z,32.53
2018-03-31T04:05:45.223Z,31.80
2018-03-31T04:08:12.219Z,29.37
2018-03-31T04:10:39.257Z,31.00
2018-03-31T04:13:06.251Z,28.73
2018-03-31T04:15:33.307Z,27.20
2018-03-31T04:18:00.296Z,28.57
2018-03-31T04:20:27.324Z,29.73
2018-03-31T04:22:54.315Z,30.70
2018-03-31T04:25:21.339Z,32.40
2018-03-31T04:27:49.128Z,33.37
2018-03-31T04:30:16.167Z,31.30
2018-03-31T04:32:43.936Z,31.70
2018-03-31T04:35:11.723Z,32.50
2018-03-31T04:37:38.724Z,31.87
2018-03-31T04:40:05.748Z,31.63
2018-03-31T04:42:33.506Z,34.17
2018-03-31T04:45:01.308Z,34.93
2018-03-31T04:47:28.355Z,32.60
2018-03-31T04:49:56.115Z,31.10
2018-03-31T04:52:23.148Z,32.17
2018-03-31T04:54:50.164Z,33.17
2018-03-31T04:57:17.959Z,32.07
2018-03-31T04:59:44.957Z,30.37
2018-03-31T05:02:11.993Z,32.47
2018-03-31T05:04:38.983Z,30.17
2018-03-31T05:07:06.007Z,27.93
2018-03-31T05:09:33.601Z,26.83
2018-03-31T05:12:00.643Z,25.50
2018-03-31T05:14:27.631Z,25.03
2018-03-31T05:16:54.662Z,24.10
2018-03-31T05:19:21.665Z,20.57
2018-03-31T05:21:48.684Z,19.90
2018-03-31T05:24:15.679Z,19.83
2018-03-31T05:26:42.706Z,20.47
2018-03-31T05:29:09.722Z,21.90
2018-03-31T05:31:36.723Z,23.07
2018-03-31T05:34:05.488Z,22.30
2018-03-31T05:36:32.492Z,24.40
2018-03-31T05:38:59.527Z,22.73
2018-03-31T05:41:27.306Z,24.60
2018-03-31T05:43:54.332Z,22.80
2018-03-31T05:46:22.082Z,20.30
2018-03-31T05:48:50.950Z,20.03
2018-03-31T05:51:17.937Z,16.57
2018-03-31T05:53:44.979Z,14.97
2018-03-31T05:56:12.065Z,13.43
2018-03-31T05:58:39.269Z,13.47
2018-03-31T06:01:07.027Z,13.10
2018-03-31T06:03:34.116Z,13.70
2018-03-31T06:06:01.091Z,13.33
2018-03-31T06:08:28.152Z,11.50
2018-03-31T06:10:55.140Z,12.87
2018-03-31T06:13:22.178Z,13.10
2018-03-31T06:15:49.199Z,12.57
2018-03-31T06:18:17.005Z,11.90
2018-03-31T06:20:44.027Z,11.40
2018-03-31T06:23:11.828Z,11.60
2018-03-31T06:25:38.815Z,13.33
2018-03-31T06:28:05.824Z,11.13
2018-03-31T06:30:32.829Z,11.30
2018-03-31T06:32:59.860Z,10.33
2018-03-31T06:35:26.907Z,10.03
2018-03-31T06:37:54.663Z,10.10
2018-03-31T06:40:24.063Z,9.80
2018-03-31T06:42:51.056Z,9.73
2018-03-31T06:45:18.076Z,8.73
2018-03-31T06:47:45.109Z,9.17
2018-03-31T06:50:12.913Z,9.67
2018-03-31T06:52:39.917Z,7.57
2018-03-31T06:55:07.007Z,8.97
2018-03-31T06:57:34.004Z,7.80
2018-03-31T07:00:01.030Z,8.80
2018-03-31T07:02:28.039Z,7.80
2018-03-31T07:04:55.079Z,7.60
2018-03-31T07:07:22.085Z,6.40
2018-03-31T07:09:49.894Z,6.63
2018-03-31T07:12:17.186Z,6.20
2018-03-31T07:14:44.494Z,5.67
2018-03-31T07:17:11.616Z,6.80
2018-03-31T07:19:38.775Z,5.33
2018-03-31T07:22:06.449Z,5.47
2018-03-31T07:24:33.706Z,5.27
2018-03-31T07:27:00.735Z,6.00
2018-03-31T07:29:27.747Z,5.87
2018-03-31T07:31:55.106Z,4.87
2018-03-31T07:34:22.133Z,5.80
2018-03-31T07:36:49.230Z,5.40
2018-03-31T07:39:17.317Z,4.73
2018-03-31T07:41:44.356Z,4.40
2018-03-31T07:44:11.371Z,4.60
2018-03-31T07:46:38.427Z,4.87
2018-03-31T07:49:05.877Z,3.97
2018-03-31T07:51:33.152Z,4.53
2018-03-31T07:54:00.924Z,4.33
2018-03-31T07:56:27.953Z,4.37
2018-03-31T07:58:54.965Z,4.57
2018-03-31T08:01:22.757Z,4.60
2018-03-31T08:03:49.749Z,5.00
2018-03-31T08:06:16.787Z,4.03
2018-03-31T08:08:43.775Z,3.90
2018-03-31T08:11:10.800Z,4.43
2018-03-31T08:13:37.842Z,4.40
2018-03-31T08:16:04.941Z,4.73
2018-03-31T08:18:32.005Z,4.00
2018-03-31T08:20:59.051Z,3.53
2018-03-31T08:23:26.053Z,3.63
2018-03-31T08:25:53.042Z,3.63
2018-03-31T08:28:20.832Z,4.00
2018-03-31T08:30:48.588Z,4.00
2018-03-31T08:33:15.574Z,3.10
2018-03-31T08:35:42.643Z,3.30
2018-03-31T08:38:12.955Z,3.70
2018-03-31T08:40:40.800Z,2.73
2018-03-31T08:43:07.835Z,2.57
2018-03-31T08:45:35.675Z,2.83
2018-03-31T08:48:03.469Z,2.60
2018-03-31T08:50:30.488Z,2.40
2018-03-31T08:52:57.524Z,2.10
2018-03-31T08:55:24.516Z,2.17
2018-03-31T08:57:51.575Z,2.50
2018-03-31T09:00:18.575Z,2.80
2018-03-31T09:02:45.599Z,2.57
2018-03-31T09:05:12.613Z,3.10
2018-03-31T09:07:39.649Z,3.10
2018-03-31T09:10:06.664Z,3.30
2018-03-31T09:12:33.691Z,2.60
2018-03-31T09:15:00.696Z,2.97
2018-03-31T09:17:27.734Z,3.20
2018-03-31T09:19:54.731Z,3.20
2018-03-31T09:22:22.493Z,2.80
2018-03-31T09:24:49.520Z,2.80
2018-03-31T09:27:16.524Z,1.93
2018-03-31T09:29:44.299Z,2.43
2018-03-31T09:32:11.350Z,2.67
2018-03-31T09:34:38.375Z,2.57
2018-03-31T09:37:05.366Z,2.90
2018-03-31T09:39:32.400Z,2.50
2018-03-31T09:41:59.391Z,1.47
2018-03-31T09:44:26.425Z,1.73
2018-03-31T09:46:53.412Z,1.43
2018-03-31T09:49:20.442Z,1.77
2018-03-31T09:51:47.431Z,1.90
2018-03-31T09:54:14.451Z,1.40
2018-03-31T09:56:41.441Z,1.70
2018-03-31T09:59:08.467Z,1.90
2018-03-31T10:01:35.485Z,1.60
2018-03-31T10:04:03.335Z,1.80
2018-03-31T10:06:30.328Z,1.70
2018-03-31T10:08:58.152Z,1.80
2018-03-31T10:11:25.144Z,1.73
2018-03-31T10:13:52.166Z,1.57
2018-03-31T10:16:19.164Z,1.70
2018-03-31T10:18:46.209Z,1.33
2018-03-31T10:21:13.199Z,1.60
2018-03-31T10:23:40.958Z,1.53
2018-03-31T10:26:07.979Z,1.87
2018-03-31T10:28:34.973Z,1.80
2018-03-31T10:31:01.980Z,1.87
2018-03-31T10:33:28.998Z,1.63
2018-03-31T10:35:56.030Z,1.87
2018-03-31T10:38:23.025Z,1.90
2018-03-31T10:40:50.823Z,1.83
2018-03-31T10:43:18.574Z,1.50
2018-03-31T10:45:45.595Z,1.80
2018-03-31T10:48:12.584Z,1.77
2018-03-31T10:50:39.641Z,1.60
2018-03-31T10:53:06.630Z,1.47
2018-03-31T10:55:34.436Z,1.47
2018-03-31T10:58:01.435Z,2.17
2018-03-31T11:00:28.462Z,1.67
2018-03-31T11:02:55.464Z,2.00
2018-03-31T11:05:22.501Z,1.43
2018-03-31T11:07:49.503Z,2.37
2018-03-31T11:10:17.316Z,1.30
2018-03-31T11:12:44.310Z,1.50
2018-03-31T11:15:11.304Z,1.37
2018-03-31T11:17:39.099Z,1.13
2018-03-31T11:20:06.871Z,1.40
2018-03-31T11:22:33.912Z,1.80
2018-03-31T11:25:01.147Z,1.23
2018-03-31T11:27:28.192Z,1.70
2018-03-31T11:29:55.427Z,1.57
2018-03-31T11:32:22.662Z,1.60
2018-03-31T11:34:50.464Z,1.40
2018-03-31T11:37:17.642Z,1.47
2018-03-31T11:39:44.644Z,1.37
2018-03-31T11:42:11.672Z,1.47
2018-03-31T11:44:38.668Z,1.53
2018-03-31T11:47:05.706Z,1.20
2018-03-31T11:49:32.705Z,1.30
2018-03-31T11:51:59.739Z,1.10
2018-03-31T11:54:26.755Z,1.10
2018-03-31T11:56:53.816Z,1.10
2018-03-31T11:59:20.816Z,1.27
2018-03-31T12:01:47.844Z,1.23
2018-03-31T12:04:14.836Z,1.63
2018-03-31T12:06:41.860Z,1.33
2018-03-31T12:09:08.885Z,1.27
2018-03-31T12:11:35.887Z,1.60
2018-03-31T12:14:02.911Z,1.30
2018-03-31T12:16:29.982Z,1.47
2018-03-31T12:18:57.018Z,1.53
2018-03-31T12:21:24.003Z,1.40
2018-03-31T12:23:51.045Z,1.20
2018-03-31T12:26:18.809Z,1.70
2018-03-31T12:28:45.832Z,1.20
2018-03-31T12:31:12.823Z,1.60
2018-03-31T12:33:39.856Z,2.50
2018-03-31T12:36:06.855Z,1.50
2018-03-31T12:38:33.882Z,1.23
2018-03-31T12:41:00.883Z,1.50
2018-03-31T12:43:28.676Z,1.30
2018-03-31T12:45:55.667Z,1.27
2018-03-31T12:48:22.791Z,1.40
2018-03-31T12:50:49.795Z,1.47
2018-03-31T12:53:16.819Z,1.37
2018-03-31T12:55:43.814Z,1.47
2018-03-31T12:58:10.844Z,1.30
2018-03-31T13:00:37.835Z,1.37
2018-03-31T13:03:04.839Z,1.40
2018-03-31T13:05:32.624Z,1.27
2018-03-31T13:07:59.671Z,1.40
2018-03-31T13:10:27.496Z,1.60
2018-03-31T13:12:54.538Z,1.10
2018-03-31T13:15:21.571Z,1.40
2018-03-31T13:17:49.319Z,1.00
2018-03-31T13:20:16.355Z,0.80
2018-03-31T13:22:43.353Z,0.93
2018-03-31T13:25:10.405Z,0.97
2018-03-31T13:27:37.403Z,0.97
2018-03-31T13:30:04.427Z,0.90
2018-03-31T13:32:31.420Z,1.30
2018-03-31T13:34:59.236Z,0.80
2018-03-31T13:37:26.924Z,1.30
2018-03-31T13:39:53.947Z,1.20
2018-03-31T13:42:24.334Z,1.13
2018-03-31T13:44:51.358Z,1.07
2018-03-31T13:47:18.350Z,0.97
2018-03-31T13:49:46.444Z,0.97
2018-03-31T13:52:13.492Z,0.87
2018-03-31T13:54:40.526Z,1.10
2018-03-31T13:57:07.541Z,1.20
2018-03-31T13:59:34.582Z,1.10
2018-03-31T14:02:01.580Z,1.03
2018-03-31T14:04:28.575Z,1.03
2018-03-31T14:06:55.653Z,1.40
2018-03-31T14:09:22.644Z,1.20
2018-03-31T14:11:50.470Z,1.43
2018-03-31T14:14:17.462Z,0.90
2018-03-31T14:16:44.491Z,1.10
2018-03-31T14:19:11.500Z,1.07
2018-03-31T14:21:39.303Z,2.20
2018-03-31T14:24:06.295Z,1.60
2018-03-31T14:26:33.352Z,1.70
2018-03-31T14:29:00.348Z,1.10
2018-03-31T14:31:27.374Z,1.90
2018-03-31T14:33:54.375Z,1.93
2018-03-31T14:36:22.176Z,3.10
2018-03-31T14:38:49.175Z,4.40
2018-03-31T14:41:16.212Z,1.07
2018-03-31T14:43:43.211Z,1.60
2018-03-31T14:46:10.245Z,14.47
2018-03-31T14:48:37.257Z,14.50
2018-03-31T14:51:05.075Z,2.47
2018-03-31T14:53:32.064Z,1.87
2018-03-31T14:55:59.060Z,2.30
2018-03-31T14:58:26.088Z,1.93
2018-03-31T15:00:53.094Z,1.80
2018-03-31T15:03:20.111Z,2.20
2018-03-31T15:05:47.111Z,1.93
2018-03-31T15:08:14.160Z,2.10
2018-03-31T15:10:41.164Z,1.80
2018-03-31T15:13:08.207Z,2.13
2018-03-31T15:15:35.194Z,1.40
2018-03-31T15:18:02.236Z,1.03
2018-03-31T15:20:29.243Z,2.10
2018-03-31T15:22:57.039Z,1.00
2018-03-31T15:25:24.023Z,1.80
2018-03-31T15:27:51.044Z,3.23
2018-03-31T15:30:18.099Z,2.37
2018-03-31T15:32:45.115Z,1.83
2018-03-31T15:35:12.158Z,1.43
2018-03-31T15:37:39.152Z,1.73
2018-03-31T15:40:06.228Z,1.57
2018-03-31T15:42:33.219Z,1.60
2018-03-31T15:45:00.207Z,1.50
2018-03-31T15:47:27.253Z,1.63
2018-03-31T15:49:54.268Z,2.20
2018-03-31T15:52:21.271Z,1.13
2018-03-31T15:54:49.179Z,1.13
2018-03-31T15:57:16.176Z,1.00
2018-03-31T15:59:43.979Z,1.10
2018-03-31T16:02:10.993Z,1.20
2018-03-31T16:04:38.020Z,1.07
2018-03-31T16:07:05.019Z,1.00
2018-03-31T16:09:32.048Z,1.37
2018-03-31T16:11:59.117Z,2.10
2018-03-31T16:14:26.147Z,2.23
2018-03-31T16:16:53.135Z,1.50
2018-03-31T16:19:20.161Z,1.80
2018-03-31T16:21:47.223Z,1.90
2018-03-31T16:24:14.248Z,2.00
2018-03-31T16:26:42.003Z,2.30
2018-03-31T16:29:09.039Z,2.30
2018-03-31T16:31:36.041Z,2.20
2018-03-31T16:34:03.190Z,3.57
2018-03-31T16:36:30.223Z,1.63
2018-03-31T16:38:57.271Z,2.53
2018-03-31T16:41:24.272Z,1.53
2018-03-31T16:43:51.299Z,1.70
2018-03-31T16:46:18.296Z,2.03
2018-03-31T16:48:45.296Z,2.30
2018-03-31T16:51:12.328Z,2.93
2018-03-31T16:53:40.103Z,1.93
2018-03-31T16:56:07.903Z,1.87
2018-03-31T16:58:34.895Z,2.10
2018-03-31T17:01:01.927Z,1.33
2018-03-31T17:03:28.930Z,1.83
2018-03-31T17:05:55.973Z,1.77
2018-03-31T17:08:22.987Z,1.20
2018-03-31T17:10:50.022Z,1.63
2018-03-31T17:13:17.081Z,1.03
2018-03-31T17:15:44.128Z,1.50
2018-03-31T17:18:11.120Z,1.00
2018-03-31T17:20:38.194Z,1.27
2018-03-31T17:23:05.202Z,1.33
2018-03-31T17:25:32.479Z,1.73
2018-03-31T17:27:59.467Z,1.10
2018-03-31T17:30:26.504Z,1.50
2018-03-31T17:32:53.547Z,1.40
2018-03-31T17:35:24.764Z,1.20
2018-03-31T17:37:51.789Z,1.60
2018-03-31T17:40:19.445Z,2.07
2018-03-31T17:42:46.483Z,1.17
2018-03-31T17:45:13.948Z,1.10
2018-03-31T17:47:40.972Z,1.40
2018-03-31T17:50:13.140Z,1.30
2018-03-31T17:52:40.707Z,1.70
2018-03-31T17:55:07.719Z,1.70
2018-03-31T17:57:37.844Z,1.20
2018-03-31T18:00:05.011Z,1.20
2018-03-31T18:02:32.048Z,1.47
2018-03-31T18:04:59.488Z,1.50
2018-03-31T18:07:26.512Z,1.10
2018-03-31T18:09:53.527Z,1.57
2018-03-31T18:15:00.612Z,1.30
2018-03-31T18:17:28.315Z,1.23
2018-03-31T18:19:55.323Z,1.37
2018-03-31T18:22:22.618Z,2.00
2018-03-31T18:24:49.621Z,1.37
2018-03-31T18:27:18.292Z,2.00
2018-03-31T18:29:45.304Z,2.07
2018-03-31T18:32:12.345Z,1.97
2018-03-31T18:34:39.348Z,2.03
2018-03-31T18:37:06.376Z,1.70
2018-03-31T18:39:33.372Z,2.23
2018-03-31T18:42:01.060Z,1.50
2018-03-31T18:44:28.064Z,1.90
2018-03-31T18:46:56.050Z,1.77
2018-03-31T18:49:23.814Z,2.10
2018-03-31T18:51:50.908Z,2.67
2018-03-31T18:54:18.397Z,2.30
2018-03-31T18:56:45.407Z,1.90
2018-03-31T18:59:12.819Z,2.47
2018-03-31T19:01:40.239Z,3.33
2018-03-31T19:04:07.315Z,4.30
2018-03-31T19:06:34.301Z,3.70
2018-03-31T19:09:01.988Z,5.03
2018-03-31T19:11:28.980Z,15.83
2018-03-31T19:13:56.151Z,11.00
2018-03-31T19:19:31.210Z,6.03
2018-03-31T19:21:58.245Z,5.13
2018-03-31T19:24:25.298Z,5.80
2018-03-31T19:26:52.295Z,6.97
2018-03-31T19:29:19.305Z,6.83
2018-03-31T19:31:47.420Z,5.97
2018-03-31T19:34:14.496Z,6.27
2018-03-31T19:36:41.460Z,5.60
2018-03-31T19:39:08.496Z,4.50
2018-03-31T19:41:35.487Z,3.77
2018-03-31T19:44:02.614Z,5.00
2018-03-31T19:46:29.621Z,5.23
2018-03-31T19:48:56.695Z,3.90
2018-03-31T19:51:23.751Z,2.57
2018-03-31T19:53:51.559Z,2.33
2018-03-31T19:56:18.563Z,2.47
2018-03-31T19:58:45.587Z,2.63
2018-03-31T20:01:12.575Z,2.00
2018-03-31T20:03:39.583Z,2.60
2018-03-31T20:06:06.624Z,1.97
2018-03-31T20:08:33.615Z,1.50
2018-03-31T20:11:00.654Z,2.37
2018-03-31T20:13:28.443Z,1.40
2018-03-31T20:15:56.702Z,1.40
2018-03-31T20:18:23.699Z,1.43
2018-03-31T20:20:50.729Z,1.13
2018-03-31T20:23:17.723Z,1.00
2018-03-31T20:25:44.784Z,1.37
2018-03-31T20:28:11.841Z,1.30
2018-03-31T20:30:38.830Z,1.27
2018-03-31T20:33:06.108Z,1.00
2018-03-31T20:35:33.093Z,1.50
2018-03-31T20:38:00.119Z,1.20
2018-03-31T20:40:27.155Z,1.10
2018-03-31T20:42:54.145Z,1.13
2018-03-31T20:45:21.200Z,0.90
2018-03-31T20:47:48.272Z,1.27
2018-03-31T20:50:15.313Z,0.93
2018-03-31T20:52:42.400Z,1.00
2018-03-31T20:55:09.448Z,1.40
2018-03-31T20:57:36.447Z,1.60
2018-03-31T21:00:03.444Z,1.20
2018-03-31T21:02:30.467Z,1.33
2018-03-31T21:04:57.482Z,1.30
2018-03-31T21:07:24.511Z,1.20
2018-03-31T21:09:51.506Z,1.20
2018-03-31T21:12:18.552Z,1.20
2018-03-31T21:14:45.544Z,1.50
2018-03-31T21:17:12.586Z,1.40
2018-03-31T21:19:39.585Z,1.30
2018-03-31T21:22:07.376Z,0.90
2018-03-31T21:24:34.364Z,1.10
2018-03-31T21:27:01.388Z,2.53
2018-03-31T21:29:28.389Z,1.10
2018-03-31T21:31:55.409Z,1.03
2018-03-31T21:34:22.402Z,1.00
2018-03-31T21:36:49.439Z,1.00
2018-03-31T21:39:16.427Z,1.20
2018-03-31T21:41:43.457Z,0.97
2018-03-31T21:44:10.504Z,0.73
2018-03-31T21:46:38.291Z,0.90
2018-03-31T21:49:05.279Z,1.10
2018-03-31T21:51:32.297Z,1.23
2018-03-31T21:53:59.377Z,1.20
2018-03-31T21:56:26.401Z,1.40
2018-03-31T21:58:54.653Z,0.97
2018-03-31T22:01:21.647Z,1.40
2018-03-31T22:03:48.724Z,1.10
2018-03-31T22:06:15.723Z,1.30
2018-03-31T22:08:42.748Z,1.33
2018-03-31T22:11:09.803Z,1.60
2018-03-31T22:13:42.613Z,1.43
2018-03-31T22:16:09.624Z,1.40
2018-03-31T22:18:36.652Z,1.40
2018-03-31T22:21:03.664Z,2.00
2018-03-31T22:23:31.864Z,1.80
2018-03-31T22:25:59.624Z,1.90
2018-03-31T22:28:26.664Z,1.90
2018-03-31T22:30:53.653Z,1.40
2018-03-31T22:33:21.447Z,1.93
2018-03-31T22:35:49.207Z,2.07
2018-03-31T22:38:16.232Z,1.40
2018-03-31T22:40:43.211Z,1.33
2018-03-31T22:43:10.236Z,1.43
2018-03-31T22:45:37.232Z,1.90
2018-03-31T22:48:04.269Z,1.73
2018-03-31T22:50:31.259Z,1.90
2018-03-31T22:52:58.248Z,1.87
2018-03-31T22:55:25.275Z,2.00
2018-03-31T22:57:52.273Z,1.70
2018-03-31T23:00:19.298Z,1.63
2018-03-31T23:02:46.293Z,1.40
2018-03-31T23:05:13.328Z,1.57
2018-03-31T23:07:41.087Z,1.63
2018-03-31T23:10:08.115Z,2.13
2018-03-31T23:12:35.104Z,1.53
2018-03-31T23:15:02.136Z,1.73
2018-03-31T23:17:29.126Z,1.97
2018-03-31T23:19:56.144Z,2.00
2018-03-31T23:22:23.135Z,1.80
2018-03-31T23:24:50.156Z,1.60
2018-03-31T23:27:17.140Z,2.30
2018-03-31T23:29:44.147Z,3.63
2018-03-31T23:32:11.904Z,2.03
2018-03-31T23:34:38.956Z,2.00
2018-03-31T23:37:05.939Z,1.67
2018-03-31T23:39:33.715Z,2.03
2018-03-31T23:42:01.504Z,2.03
2018-03-31T23:44:28.506Z,2.17
2018-03-31T23:46:55.551Z,2.30
2018-03-31T23:49:22.545Z,2.47
2018-03-31T23:51:49.568Z,1.90
2018-03-31T23:54:16.553Z,2.33
2018-03-31T23:56:43.574Z,2.60
2018-03-31T23:59:10.568Z,2.53
